| time (UTC) | temp C | wind direction | speed KPH | gust KPH | rain 1hr cm | rain 24hr cm | rain mn cm | humidity % | barometer mb |
| 20260510230044 | 29 | 313 | 1.6 | 9.7 | 0.00 | 1.70 | 1.70 | 65 | 1015.4 |
| 20260510224543 | 30 | 341 | 0.0 | 4.8 | 0.00 | 1.70 | 1.70 | 64 | 1015.3 |
| 20260510223101 | 30 | 182 | 1.6 | 8.0 | 0.00 | 1.70 | 1.70 | 62 | 1015.4 |
| 20260510221543 | 30 | 252 | 1.6 | 6.4 | 0.00 | 1.70 | 1.70 | 64 | 1015.4 |
| 20260510220043 | 30 | 247 | 1.6 | 12.9 | 0.00 | 1.70 | 1.70 | 64 | 1015.3 |
| 20260510214542 | 30 | 230 | 1.6 | 9.7 | 0.00 | 1.70 | 1.70 | 66 | 1015.4 |
| 20260510213041 | 30 | 273 | 3.2 | 6.4 | 0.00 | 1.70 | 1.70 | 66 | 1015.6 |
| 20260510211547 | 30 | 284 | 1.6 | 6.4 | 0.00 | 1.70 | 1.70 | 69 | 1015.6 |
| 20260510210040 | 30 | 233 | 1.6 | 6.4 | 0.00 | 1.70 | 1.70 | 69 | 1015.7 |
| 20260510204549 | 29 | 200 | 0.0 | 3.2 | 0.00 | 1.70 | 1.70 | 71 | 1015.7 |
| 20260510203040 | 29 | 215 | 1.6 | 8.0 | 0.00 | 1.70 | 1.70 | 69 | 1015.8 |
| 20260510201541 | 29 | 263 | 1.6 | 6.4 | 0.00 | 1.70 | 1.70 | 72 | 1015.6 |
| 20260510200039 | 28 | 188 | 0.0 | 4.8 | 0.00 | 1.70 | 1.70 | 75 | 1015.6 |
| 20260510194539 | 27 | 105 | 0.0 | 8.0 | 0.00 | 1.70 | 1.70 | 77 | 1015.6 |
| 20260510193037 | 26 | 169 | 1.6 | 8.0 | 0.00 | 1.70 | 1.70 | 83 | 1015.9 |
| 20260510191537 | 26 | 306 | 1.6 | 4.8 | 0.28 | 1.70 | 1.70 | 88 | 1016.0 |
| 20260510190038 | 26 | 323 | 0.0 | 3.2 | 0.36 | 1.70 | 1.70 | 90 | 1016.1 |
| 20260510184537 | 25 | 323 | 0.0 | 6.4 | 0.69 | 1.70 | 1.70 | 90 | 1016.2 |
| 20260510183036 | 23 | 126 | 0.0 | 14.5 | 1.70 | 1.70 | 1.70 | 89 | 1016.5 |
| 20260510181536 | 24 | 186 | 6.4 | 16.1 | 1.40 | 1.40 | 1.40 | 88 | 1016.5 |
| 20260510180043 | 25 | 102 | 1.6 | 6.4 | 1.35 | 1.35 | 1.35 | 86 | 1016.3 |
| 20260510174535 | 27 | 142 | 8.0 | 25.7 | 0.86 | 0.86 | 0.86 | 75 | 1016.9 |
| 20260510173036 | 33 | 183 | 3.2 | 9.7 | 0.00 | 0.00 | 0.00 | 54 | 1016.0 |
| 20260510171535 | 32 | 205 | 1.6 | 6.4 | 0.00 | 0.00 | 0.00 | 57 | 1016.1 |
| 20260510170029 | 32 | 243 | 1.6 | 4.8 | 0.00 | 0.00 | 0.00 | 58 | 1016.4 |
| 20260510164528 | 32 | 199 | 1.6 | 9.7 | 0.00 | 0.00 | 0.00 | 57 | 1016.7 |
| 20260510163026 | 32 | 192 | 1.6 | 4.8 | 0.00 | 0.00 | 0.00 | 60 | 1016.8 |
| 20260510161523 | 32 | 217 | 3.2 | 9.7 | 0.00 | 0.00 | 0.00 | 61 | 1017.1 |
| 20260510160022 | 31 | 177 | 1.6 | 11.3 | 0.00 | 0.00 | 0.00 | 61 | 1017.1 |
| 20260510154521 | 32 | 174 | 3.2 | 9.7 | 0.00 | 0.00 | 0.00 | 63 | 1016.9 |
| 20260510153032 | 31 | 175 | 0.0 | 11.3 | 0.00 | 0.00 | 0.00 | 64 | 1017.0 |
| 20260510151526 | 31 | 154 | 1.6 | 9.7 | 0.00 | 0.00 | 0.00 | 66 | 1017.0 |
| 20260510150013 | 30 | 294 | 3.2 | 14.5 | 0.00 | 0.00 | 0.00 | 69 | 1017.1 |
| 20260510144510 | 30 | 217 | 1.6 | 11.3 | 0.00 | 0.00 | 0.00 | 69 | 1016.9 |
| 20260510143007 | 29 | 221 | 4.8 | 11.3 | 0.00 | 0.00 | 0.00 | 71 | 1016.8 |
| 20260510141502 | 28 | 230 | 1.6 | 12.9 | 0.00 | 0.00 | 0.00 | 75 | 1016.8 |
| 20260510140100 | 27 | 223 | 1.6 | 4.8 | 0.00 | 0.00 | 0.00 | 75 | 1017.1 |
| 20260510134557 | 27 | 167 | 1.6 | 4.8 | 0.00 | 0.00 | 0.00 | 79 | 1016.9 |
| 20260510133053 | 27 | 171 | 1.6 | 6.4 | 0.00 | 0.00 | 0.00 | 80 | 1016.7 |
| 20260510131550 | 26 | 163 | 1.6 | 8.0 | 0.00 | 0.00 | 0.00 | 82 | 1016.6 |
| 20260510130050 | 25 | 182 | 1.6 | 4.8 | 0.00 | 0.00 | 0.00 | 86 | 1016.5 |
| 20260510124556 | 24 | 209 | 0.0 | 9.7 | 0.00 | 0.00 | 0.00 | 89 | 1016.5 |
| 20260510123038 | 23 | 149 | 0.0 | 9.7 | 0.00 | 0.00 | 0.00 | 90 | 1016.4 |
| 20260510121539 | 23 | 186 | 0.0 | 6.4 | 0.00 | 0.00 | 0.00 | 91 | 1016.3 |
| 20260510120033 | 23 | 197 | 1.6 | 6.4 | 0.00 | 0.00 | 0.00 | 91 | 1016.1 |
| 20260510114527 | 22 | 71 | 0.0 | 3.2 | 0.00 | 0.00 | 0.00 | 92 | 1015.8 |
| 20260510113025 | 22 | 171 | 1.6 | 6.4 | 0.00 | 0.00 | 0.00 | 92 | 1015.5 |
| 20260510111525 | 22 | 190 | 3.2 | 6.4 | 0.00 | 0.00 | 0.00 | 92 | 1015.2 |
| 20260510110039 | 22 | 123 | 1.6 | 4.8 | 0.00 | 0.00 | 0.00 | 91 | 1015.1 |
| 20260510104524 | 22 | 123 | 0.0 | 1.6 | 0.00 | 0.00 | 0.00 | 91 | 1014.7 |
| 20260510103022 | 22 | 123 | 0.0 | 0.0 | 0.00 | 0.00 | 0.00 | 91 | 1014.8 |
| 20260510101531 | 22 | 123 | 0.0 | 0.0 | 0.00 | 0.00 | 0.00 | 91 | 1014.6 |
| 20260510100024 | 22 | 123 | 0.0 | 1.6 | 0.00 | 0.00 | 0.00 | 91 | 1014.2 |
| 20260510094524 | 22 | 123 | 0.0 | 1.6 | 0.00 | 0.00 | 0.00 | 91 | 1014.1 |
| 20260510093020 | 22 | 123 | 0.0 | 3.2 | 0.00 | 0.00 | 0.00 | 91 | 1014.2 |
| 20260510091527 | 22 | 121 | 0.0 | 3.2 | 0.00 | 0.00 | 0.00 | 91 | 1014.0 |
| 20260510090025 | 22 | 121 | 0.0 | 1.6 | 0.00 | 0.00 | 0.00 | 91 | 1014.1 |
| 20260510084517 | 22 | 121 | 0.0 | 4.8 | 0.00 | 0.00 | 0.00 | 91 | 1013.8 |
| 20260510083017 | 22 | 117 | 0.0 | 3.2 | 0.00 | 0.00 | 0.00 | 91 | 1013.5 |
| 20260510081516 | 22 | 117 | 0.0 | 3.2 | 0.00 | 0.00 | 0.00 | 91 | 1013.5 |
| 20260510080014 | 22 | 117 | 0.0 | 3.2 | 0.00 | 0.00 | 0.00 | 91 | 1013.7 |
| 20260510074513 | 22 | 117 | 0.0 | 3.2 | 0.00 | 0.00 | 0.00 | 90 | 1013.8 |
| 20260510073013 | 22 | 115 | 0.0 | 4.8 | 0.00 | 0.00 | 0.00 | 90 | 1013.9 |
| 20260510071517 | 22 | 63 | 1.6 | 3.2 | 0.00 | 0.00 | 0.00 | 90 | 1014.2 |
| 20260510070010 | 22 | 63 | 0.0 | 1.6 | 0.00 | 0.00 | 0.00 | 90 | 1014.3 |
| 20260510064525 | 22 | 63 | 0.0 | 3.2 | 0.00 | 0.00 | 0.00 | 90 | 1014.3 |
| 20260510063008 | 22 | 63 | 0.0 | 0.0 | 0.00 | 0.00 | 0.00 | 90 | 1014.6 |
| 20260510061515 | 22 | 63 | 0.0 | 1.6 | 0.00 | 0.00 | 0.00 | 90 | 1014.6 |
| 20260510060008 | 22 | 63 | 0.0 | 1.6 | 0.00 | 0.00 | 0.00 | 90 | 1015.0 |
| 20260510054603 | 22 | 63 | 0.0 | 1.6 | 0.00 | 0.00 | 0.00 | 89 | 1014.9 |
| 20260510053102 | 22 | 63 | 0.0 | 1.6 | 0.00 | 0.00 | 0.00 | 89 | 1015.0 |
| 20260510051603 | 22 | 63 | 0.0 | 3.2 | 0.00 | 0.00 | 0.00 | 89 | 1015.2 |
| 20260510050100 | 22 | 63 | 0.0 | 1.6 | 0.00 | 0.00 | 0.00 | 88 | 1015.4 |
| 20260510044554 | 22 | 63 | 0.0 | 0.0 | 0.00 | 0.00 | 0.00 | 88 | 1015.7 |
| 20260510043050 | 23 | 63 | 0.0 | 0.0 | 0.00 | 0.00 | 0.00 | 88 | 1015.6 |
| 20260510041545 | 23 | 63 | 0.0 | 1.6 | 0.00 | 0.00 | 0.00 | 87 | 1015.5 |
| 20260510040041 | 23 | 63 | 0.0 | 3.2 | 0.00 | 0.00 | 0.00 | 87 | 1015.5 |
| 20260510034545 | 23 | 63 | 0.0 | 0.0 | 0.00 | 0.00 | 0.00 | 86 | 1015.7 |
| 20260510033045 | 23 | 63 | 0.0 | 0.0 | 0.00 | 0.00 | 0.00 | 85 | 1015.6 |
| 20260510031539 | 23 | 63 | 0.0 | 1.6 | 0.00 | 0.00 | 0.00 | 85 | 1015.5 |
| 20260510030037 | 23 | 63 | 0.0 | 3.2 | 0.00 | 0.00 | 0.00 | 84 | 1015.5 |
| 20260510024537 | 24 | 63 | 0.0 | 1.6 | 0.00 | 0.00 | 0.00 | 82 | 1015.5 |
| 20260510023037 | 24 | 63 | 0.0 | 3.2 | 0.00 | 0.00 | 0.00 | 81 | 1015.4 |
| 20260510021535 | 25 | 65 | 1.6 | 4.8 | 0.00 | 0.00 | 0.00 | 81 | 1015.2 |
| 20260510020036 | 25 | 77 | 3.2 | 9.7 | 0.00 | 0.00 | 0.00 | 80 | 1015.2 |
| 20260510014535 | 25 | 50 | 3.2 | 8.0 | 0.00 | 0.00 | 0.00 | 82 | 1015.0 |
| 20260510013034 | 25 | 48 | 3.2 | 8.0 | 0.00 | 0.00 | 0.00 | 81 | 1014.9 |
| 20260510011534 | 26 | 44 | 3.2 | 6.4 | 0.00 | 0.00 | 0.00 | 82 | 1014.6 |
| 20260510010033 | 26 | 77 | 3.2 | 9.7 | 0.00 | 0.00 | 0.00 | 83 | 1014.5 |
| 20260510004532 | 26 | 57 | 1.6 | 9.7 | 0.00 | 0.00 | 0.00 | 82 | 1014.3 |
| 20260510003032 | 26 | 34 | 3.2 | 6.4 | 0.00 | 0.00 | 0.00 | 80 | 1014.1 |
| 20260510001532 | 27 | 38 | 4.8 | 9.7 | 0.00 | 0.00 | 0.00 | 78 | 1013.7 |
| 20260510000036 | 27 | 23 | 4.8 | 14.5 | 0.00 | 0.00 | 0.00 | 75 | 1013.5 |
| 20260509234540 | 27 | 10 | 4.8 | 9.7 | 0.00 | 0.00 | 0.00 | 74 | 1013.4 |
| 20260509233030 | 28 | 48 | 3.2 | 9.7 | 0.00 | 0.00 | 0.00 | 72 | 1013.2 |
| 20260509231529 | 29 | 30 | 6.4 | 16.1 | 0.00 | 0.00 | 0.00 | 69 | 1013.2 |